Sugarloaf, CA (92386)

8:45 AM PDT on September 01, 2015 (GMT -0700)
Cottar's Cabin | | Change Station
CLOSE
Current Station
Personal Weather Station
Location: Big Bear, CA
Elevation: 7028 ft
Nearby Weather Stations

Elev 7028 ft 34.25 °N, 116.84 °W | Updated 4 minutes ago

Clear
Clear
62.8 °F
Feels Like 62.8 °F
N
0.0
Wind Variable Wind from SE

Today
High -- | Low -- °F
--% Chance of Precip.
Yesterday
High -- | Low -- °F
Precip. -- in
6:20 AM 7:13 PM
Waning Gibbous, 88% visible
Pressure 30.19 in
Visibility 10.0 miles
Clouds Clear
Dew Point 26 °F
Humidity 24%
Rainfall 0.00 in
Snow Depth Not available.
UV 3 out of 12
Pollen 7.20 out of 12
Air Quality Not available.
Flu Activity Not available.
METAR KL35 011535Z AUTO 00000KT 10SM CLR 14/M01 A3019 RMK AO2
Pressure 30.19 in
Visibility 10.0 miles
Clouds Clear
Dew Point 26 °F
Humidity 24%
Rainfall 0.00 in
Snow Depth Not available.
UV 3 out of 12
Pollen 7.20 out of 12
Air Quality Not available.
Flu Activity Not available.
METAR KL35 011535Z AUTO 00000KT 10SM CLR 14/M01 A3019 RMK AO2

10-Day Weather Forecast

×

Almanac

Astronomy

Sep. 01, 2015 Rise Set
Actual Time
Civil Twilight
Nautical Twilight
Astronomical Twilight
Moon
Length of Visible Light
Length of Day
Tomorrow will be .
, % of the Moon is Illuminated

Today's Extremes

State Highs State Lows

Community

WunderPhotos

Upload Photos

1,851,538 photos uploaded!

WunderBlogs® & News

Nearby

Air Quality

  Air Quality AQ Index Pollutant
Not available.

Snow Depth

Station Depth Elevation

Earthquake Activity

City Distance Mag. Time & Date
Minimum magnitude displayed is 2.5.

Coastal Water Temperatures

Place Temperature

Stations

Nearby Weather Stations

Station Location Temp. Windchill Dew Point Humidity Wind Precip. Elev Updated Type